Archival Weather

NSFA McMurdo Sound

NSFA McMurdo Sound, Antarctica (NZCM)

Report from: Saturday, February 24, 2024 1:55 AM UTC
Current time: Friday, June 14, 2024 11:31 AM UTC

Current weather – Weather history – Daily summaries
Weather forecast

Temperature-15.7°C (3.7°F)
Wind chill-25.9°C (-14.6°F)
Dew point-31.3°C (-24.3°F)
Winds 13 kts (6.7 m/s, 15 mph) Northeast (40°)
Visibility6.2 mi. (10 km)
Clouds Sky clear
Altimeter29.26 in.Hg (991 mB)
Relative humidity25 %
Density altitude-3,114 ft. (-949 m)
Sea-level pressure99.1 kPa (991 mB, 29.28 in.Hg)
Remarks Fully automated report
Automated weather observing station with precipitation discriminator
Flight conditions Visual Meteorological Conditions
Raw dataNZCM 240155Z AUTO 04013KT 9999 CLR M16/M31 A2926 RMK AO2 SLP914 T11571313
An error has occurred. This application may no longer respond until reloaded. Reload 🗙